sensor_id;sensor_type;location;lat;lon;timestamp;P1;durP1;ratioP1;P2;durP2;ratioP2
11039;SDS011;5573;49.592;8.662;2022-10-31T00:00:59;375.23;;;352.85;;
11039;SDS011;5573;49.592;8.662;2022-10-31T00:03:48;396.45;;;372.85;;
11039;SDS011;5573;49.592;8.662;2022-10-31T00:06:36;391.20;;;367.67;;
11039;SDS011;5573;49.592;8.662;2022-10-31T00:09:25;390.02;;;366.63;;
11039;SDS011;5573;49.592;8.662;2022-10-31T00:12:13;382.00;;;359.42;;
11039;SDS011;5573;49.592;8.662;2022-10-31T00:15:01;361.35;;;340.13;;
11039;SDS011;5573;49.592;8.662;2022-10-31T00:17:49;380.08;;;357.27;;
11039;SDS011;5573;49.592;8.662;2022-10-31T00:20:37;397.92;;;374.17;;
11039;SDS011;5573;49.592;8.662;2022-10-31T00:23:26;363.30;;;341.77;;
11039;SDS011;5573;49.592;8.662;2022-10-31T00:26:15;375.10;;;352.38;;
11039;SDS011;5573;49.592;8.662;2022-10-31T00:29:03;369.60;;;348.35;;
11039;SDS011;5573;49.592;8.662;2022-10-31T00:31:52;370.88;;;347.92;;
11039;SDS011;5573;49.592;8.662;2022-10-31T00:34:40;369.45;;;347.52;;
11039;SDS011;5573;49.592;8.662;2022-10-31T00:37:29;377.20;;;354.83;;
11039;SDS011;5573;49.592;8.662;2022-10-31T00:40:16;369.30;;;347.20;;
11039;SDS011;5573;49.592;8.662;2022-10-31T00:43:06;347.00;;;326.30;;
11039;SDS011;5573;49.592;8.662;2022-10-31T00:45:54;341.70;;;321.75;;
11039;SDS011;5573;49.592;8.662;2022-10-31T00:48:43;367.65;;;345.42;;
11039;SDS011;5573;49.592;8.662;2022-10-31T00:51:32;361.25;;;340.08;;
11039;SDS011;5573;49.592;8.662;2022-10-31T00:54:20;363.38;;;341.90;;
11039;SDS011;5573;49.592;8.662;2022-10-31T00:57:08;381.88;;;357.80;;
11039;SDS011;5573;49.592;8.662;2022-10-31T00:59:58;352.45;;;331.15;;
11039;SDS011;5573;49.592;8.662;2022-10-31T01:02:47;354.13;;;333.23;;
11039;SDS011;5573;49.592;8.662;2022-10-31T01:05:35;366.73;;;344.98;;
11039;SDS011;5573;49.592;8.662;2022-10-31T01:08:23;366.77;;;344.73;;
11039;SDS011;5573;49.592;8.662;2022-10-31T01:11:12;385.70;;;361.40;;
11039;SDS011;5573;49.592;8.662;2022-10-31T01:14:02;360.98;;;339.40;;
11039;SDS011;5573;49.592;8.662;2022-10-31T01:16:53;353.77;;;332.88;;
11039;SDS011;5573;49.592;8.662;2022-10-31T01:19:41;345.50;;;324.27;;
11039;SDS011;5573;49.592;8.662;2022-10-31T01:22:29;358.98;;;338.17;;
11039;SDS011;5573;49.592;8.662;2022-10-31T01:25:19;372.63;;;350.17;;
11039;SDS011;5573;49.592;8.662;2022-10-31T01:28:08;324.95;;;306.27;;
11039;SDS011;5573;49.592;8.662;2022-10-31T01:30:59;335.38;;;316.05;;
11039;SDS011;5573;49.592;8.662;2022-10-31T01:33:49;352.00;;;330.45;;
11039;SDS011;5573;49.592;8.662;2022-10-31T01:36:38;335.15;;;314.98;;
11039;SDS011;5573;49.592;8.662;2022-10-31T01:39:28;357.77;;;336.17;;
11039;SDS011;5573;49.592;8.662;2022-10-31T01:42:17;331.58;;;311.85;;
11039;SDS011;5573;49.592;8.662;2022-10-31T01:45:09;338.13;;;318.23;;
11039;SDS011;5573;49.592;8.662;2022-10-31T01:47:57;350.27;;;329.23;;
11039;SDS011;5573;49.592;8.662;2022-10-31T01:50:48;345.98;;;325.13;;
11039;SDS011;5573;49.592;8.662;2022-10-31T01:53:38;330.33;;;310.63;;
11039;SDS011;5573;49.592;8.662;2022-10-31T01:56:27;321.58;;;302.52;;
11039;SDS011;5573;49.592;8.662;2022-10-31T01:59:16;348.20;;;327.10;;
11039;SDS011;5573;49.592;8.662;2022-10-31T02:02:08;347.80;;;327.08;;
11039;SDS011;5573;49.592;8.662;2022-10-31T02:04:56;351.20;;;330.38;;
11039;SDS011;5573;49.592;8.662;2022-10-31T02:07:51;348.40;;;328.08;;
11039;SDS011;5573;49.592;8.662;2022-10-31T02:10:47;335.13;;;315.58;;
11039;SDS011;5573;49.592;8.662;2022-10-31T02:13:37;359.92;;;338.58;;
11039;SDS011;5573;49.592;8.662;2022-10-31T02:16:27;353.35;;;331.95;;
11039;SDS011;5573;49.592;8.662;2022-10-31T02:19:16;359.23;;;337.52;;
11039;SDS011;5573;49.592;8.662;2022-10-31T02:22:13;339.42;;;318.80;;
11039;SDS011;5573;49.592;8.662;2022-10-31T02:25:19;348.27;;;327.65;;
11039;SDS011;5573;49.592;8.662;2022-10-31T02:28:31;344.42;;;323.77;;
11039;SDS011;5573;49.592;8.662;2022-10-31T02:31:38;313.77;;;295.55;;
11039;SDS011;5573;49.592;8.662;2022-10-31T02:34:34;339.63;;;319.85;;
11039;SDS011;5573;49.592;8.662;2022-10-31T02:37:29;352.02;;;331.90;;
11039;SDS011;5573;49.592;8.662;2022-10-31T02:40:25;357.35;;;336.63;;
11039;SDS011;5573;49.592;8.662;2022-10-31T02:43:32;359.98;;;338.90;;
11039;SDS011;5573;49.592;8.662;2022-10-31T02:46:28;353.42;;;332.23;;
11039;SDS011;5573;49.592;8.662;2022-10-31T02:49:26;344.25;;;323.65;;
11039;SDS011;5573;49.592;8.662;2022-10-31T02:52:18;346.92;;;325.73;;
11039;SDS011;5573;49.592;8.662;2022-10-31T02:55:09;334.80;;;315.05;;
11039;SDS011;5573;49.592;8.662;2022-10-31T02:57:59;344.88;;;324.02;;
11039;SDS011;5573;49.592;8.662;2022-10-31T03:00:56;335.75;;;315.83;;
11039;SDS011;5573;49.592;8.662;2022-10-31T03:03:59;338.70;;;318.05;;
11039;SDS011;5573;49.592;8.662;2022-10-31T03:07:07;339.35;;;319.40;;
11039;SDS011;5573;49.592;8.662;2022-10-31T03:10:03;330.88;;;311.35;;
11039;SDS011;5573;49.592;8.662;2022-10-31T03:12:58;335.33;;;315.85;;
11039;SDS011;5573;49.592;8.662;2022-10-31T03:15:51;349.02;;;328.42;;
11039;SDS011;5573;49.592;8.662;2022-10-31T03:18:43;326.60;;;306.20;;
11039;SDS011;5573;49.592;8.662;2022-10-31T03:21:39;323.98;;;305.15;;
11039;SDS011;5573;49.592;8.662;2022-10-31T03:24:32;329.20;;;309.38;;
11039;SDS011;5573;49.592;8.662;2022-10-31T03:27:23;345.70;;;325.00;;
11039;SDS011;5573;49.592;8.662;2022-10-31T03:30:13;338.98;;;319.13;;
11039;SDS011;5573;49.592;8.662;2022-10-31T03:33:15;328.23;;;308.75;;
11039;SDS011;5573;49.592;8.662;2022-10-31T03:36:08;329.27;;;309.42;;
11039;SDS011;5573;49.592;8.662;2022-10-31T03:38:59;343.20;;;322.33;;
11039;SDS011;5573;49.592;8.662;2022-10-31T03:41:53;326.23;;;307.02;;
11039;SDS011;5573;49.592;8.662;2022-10-31T03:44:46;346.17;;;325.38;;
11039;SDS011;5573;49.592;8.662;2022-10-31T03:47:38;335.58;;;315.95;;
11039;SDS011;5573;49.592;8.662;2022-10-31T03:50:32;345.02;;;324.45;;
11039;SDS011;5573;49.592;8.662;2022-10-31T03:53:26;340.65;;;320.17;;
11039;SDS011;5573;49.592;8.662;2022-10-31T03:56:23;334.08;;;314.33;;
11039;SDS011;5573;49.592;8.662;2022-10-31T03:59:19;324.48;;;305.35;;
11039;SDS011;5573;49.592;8.662;2022-10-31T04:02:13;342.00;;;321.35;;
11039;SDS011;5573;49.592;8.662;2022-10-31T04:05:04;340.33;;;319.88;;
11039;SDS011;5573;49.592;8.662;2022-10-31T04:07:53;344.25;;;324.10;;
11039;SDS011;5573;49.592;8.662;2022-10-31T04:10:43;328.48;;;308.70;;
11039;SDS011;5573;49.592;8.662;2022-10-31T04:13:37;347.17;;;326.42;;
11039;SDS011;5573;49.592;8.662;2022-10-31T04:16:33;318.85;;;300.25;;
11039;SDS011;5573;49.592;8.662;2022-10-31T04:19:23;340.65;;;320.20;;
11039;SDS011;5573;49.592;8.662;2022-10-31T04:22:12;337.42;;;317.60;;
11039;SDS011;5573;49.592;8.662;2022-10-31T04:25:00;327.63;;;308.40;;
11039;SDS011;5573;49.592;8.662;2022-10-31T04:27:48;333.17;;;314.05;;
11039;SDS011;5573;49.592;8.662;2022-10-31T04:30:37;340.52;;;320.05;;
11039;SDS011;5573;49.592;8.662;2022-10-31T04:33:26;316.08;;;297.67;;
11039;SDS011;5573;49.592;8.662;2022-10-31T04:36:14;326.15;;;306.73;;
11039;SDS011;5573;49.592;8.662;2022-10-31T04:39:02;336.17;;;316.23;;
11039;SDS011;5573;49.592;8.662;2022-10-31T04:41:58;329.50;;;310.27;;
11039;SDS011;5573;49.592;8.662;2022-10-31T04:44:46;342.17;;;321.10;;
11039;SDS011;5573;49.592;8.662;2022-10-31T04:47:35;345.15;;;323.75;;
11039;SDS011;5573;49.592;8.662;2022-10-31T04:50:24;343.50;;;323.83;;
11039;SDS011;5573;49.592;8.662;2022-10-31T04:53:13;341.45;;;320.83;;
11039;SDS011;5573;49.592;8.662;2022-10-31T04:56:29;325.75;;;306.48;;
11039;SDS011;5573;49.592;8.662;2022-10-31T04:59:20;341.60;;;321.15;;
11039;SDS011;5573;49.592;8.662;2022-10-31T05:02:11;335.27;;;315.92;;
11039;SDS011;5573;49.592;8.662;2022-10-31T05:05:05;336.33;;;316.63;;
11039;SDS011;5573;49.592;8.662;2022-10-31T05:07:56;314.58;;;295.98;;
11039;SDS011;5573;49.592;8.662;2022-10-31T05:10:44;327.65;;;308.10;;
11039;SDS011;5573;49.592;8.662;2022-10-31T05:13:33;319.63;;;300.75;;
11039;SDS011;5573;49.592;8.662;2022-10-31T05:16:46;323.23;;;304.20;;
11039;SDS011;5573;49.592;8.662;2022-10-31T05:19:53;309.95;;;291.52;;
11039;SDS011;5573;49.592;8.662;2022-10-31T05:23:09;313.75;;;295.10;;
11039;SDS011;5573;49.592;8.662;2022-10-31T05:25:57;347.63;;;327.13;;
11039;SDS011;5573;49.592;8.662;2022-10-31T05:28:45;307.60;;;289.40;;
11039;SDS011;5573;49.592;8.662;2022-10-31T05:31:33;313.98;;;295.60;;
11039;SDS011;5573;49.592;8.662;2022-10-31T05:34:22;304.65;;;287.13;;
11039;SDS011;5573;49.592;8.662;2022-10-31T05:37:33;310.52;;;292.52;;
11039;SDS011;5573;49.592;8.662;2022-10-31T05:40:23;313.08;;;294.65;;
11039;SDS011;5573;49.592;8.662;2022-10-31T05:43:12;314.10;;;295.95;;
11039;SDS011;5573;49.592;8.662;2022-10-31T05:46:01;305.95;;;287.65;;
11039;SDS011;5573;49.592;8.662;2022-10-31T05:49:09;304.75;;;286.52;;
11039;SDS011;5573;49.592;8.662;2022-10-31T05:52:20;307.90;;;289.30;;
11039;SDS011;5573;49.592;8.662;2022-10-31T05:55:19;310.40;;;292.20;;
11039;SDS011;5573;49.592;8.662;2022-10-31T05:58:23;311.63;;;293.00;;
11039;SDS011;5573;49.592;8.662;2022-10-31T06:01:24;310.55;;;291.90;;
11039;SDS011;5573;49.592;8.662;2022-10-31T06:04:12;329.98;;;310.70;;
11039;SDS011;5573;49.592;8.662;2022-10-31T06:07:01;288.58;;;271.08;;
11039;SDS011;5573;49.592;8.662;2022-10-31T06:09:49;281.60;;;264.67;;
11039;SDS011;5573;49.592;8.662;2022-10-31T06:12:40;307.40;;;288.75;;
11039;SDS011;5573;49.592;8.662;2022-10-31T06:15:37;301.00;;;283.20;;
11039;SDS011;5573;49.592;8.662;2022-10-31T06:18:27;279.98;;;263.52;;
11039;SDS011;5573;49.592;8.662;2022-10-31T06:21:15;288.65;;;271.42;;
11039;SDS011;5573;49.592;8.662;2022-10-31T06:24:07;266.38;;;250.50;;
11039;SDS011;5573;49.592;8.662;2022-10-31T06:27:13;292.27;;;274.77;;
11039;SDS011;5573;49.592;8.662;2022-10-31T06:30:01;282.05;;;265.27;;
11039;SDS011;5573;49.592;8.662;2022-10-31T06:32:52;284.80;;;268.08;;
11039;SDS011;5573;49.592;8.662;2022-10-31T06:35:44;306.60;;;288.40;;
11039;SDS011;5573;49.592;8.662;2022-10-31T06:38:32;282.90;;;266.25;;
11039;SDS011;5573;49.592;8.662;2022-10-31T06:41:25;298.23;;;280.88;;
11039;SDS011;5573;49.592;8.662;2022-10-31T06:44:13;285.10;;;267.85;;
11039;SDS011;5573;49.592;8.662;2022-10-31T06:47:13;299.13;;;281.65;;
11039;SDS011;5573;49.592;8.662;2022-10-31T06:50:19;288.25;;;271.67;;
11039;SDS011;5573;49.592;8.662;2022-10-31T06:53:07;314.70;;;296.10;;
11039;SDS011;5573;49.592;8.662;2022-10-31T06:56:00;315.27;;;296.67;;
11039;SDS011;5573;49.592;8.662;2022-10-31T06:58:53;315.63;;;297.02;;
11039;SDS011;5573;49.592;8.662;2022-10-31T07:02:01;303.30;;;285.17;;
11039;SDS011;5573;49.592;8.662;2022-10-31T07:04:29;322.10;;;302.60;;
11039;SDS011;5573;49.592;8.662;2022-10-31T07:06:58;319.00;;;300.35;;
11039;SDS011;5573;49.592;8.662;2022-10-31T07:09:26;312.92;;;294.33;;
11039;SDS011;5573;49.592;8.662;2022-10-31T07:11:56;357.35;;;336.15;;
11039;SDS011;5573;49.592;8.662;2022-10-31T07:14:24;328.40;;;308.15;;
11039;SDS011;5573;49.592;8.662;2022-10-31T07:16:52;329.27;;;309.58;;
11039;SDS011;5573;49.592;8.662;2022-10-31T07:19:25;355.98;;;335.02;;
11039;SDS011;5573;49.592;8.662;2022-10-31T07:21:53;373.17;;;350.65;;
11039;SDS011;5573;49.592;8.662;2022-10-31T07:24:24;347.48;;;326.02;;
11039;SDS011;5573;49.592;8.662;2022-10-31T07:27:11;346.90;;;326.58;;
11039;SDS011;5573;49.592;8.662;2022-10-31T07:29:38;336.33;;;316.08;;
11039;SDS011;5573;49.592;8.662;2022-10-31T07:32:07;374.05;;;351.67;;
11039;SDS011;5573;49.592;8.662;2022-10-31T07:34:39;368.33;;;346.38;;
11039;SDS011;5573;49.592;8.662;2022-10-31T07:37:27;369.63;;;347.02;;
11039;SDS011;5573;49.592;8.662;2022-10-31T07:39:58;376.08;;;353.08;;
11039;SDS011;5573;49.592;8.662;2022-10-31T07:42:25;373.30;;;350.13;;
11039;SDS011;5573;49.592;8.662;2022-10-31T07:44:54;379.58;;;355.85;;
11039;SDS011;5573;49.592;8.662;2022-10-31T07:47:42;375.92;;;353.35;;
11039;SDS011;5573;49.592;8.662;2022-10-31T07:50:33;396.95;;;373.55;;
11039;SDS011;5573;49.592;8.662;2022-10-31T07:53:19;392.88;;;369.15;;
11039;SDS011;5573;49.592;8.662;2022-10-31T07:56:11;383.80;;;360.05;;
11039;SDS011;5573;49.592;8.662;2022-10-31T07:58:39;391.13;;;367.42;;
11039;SDS011;5573;49.592;8.662;2022-10-31T08:01:07;405.02;;;380.23;;
11039;SDS011;5573;49.592;8.662;2022-10-31T08:03:45;410.13;;;384.98;;
11039;SDS011;5573;49.592;8.662;2022-10-31T08:06:31;412.50;;;387.85;;
11039;SDS011;5573;49.592;8.662;2022-10-31T08:09:11;410.83;;;385.77;;
11039;SDS011;5573;49.592;8.662;2022-10-31T08:11:40;394.58;;;370.63;;
11039;SDS011;5573;49.592;8.662;2022-10-31T08:14:08;395.27;;;371.80;;
11039;SDS011;5573;49.592;8.662;2022-10-31T08:16:36;386.27;;;363.92;;
11039;SDS011;5573;49.592;8.662;2022-10-31T08:19:05;412.23;;;387.58;;
11039;SDS011;5573;49.592;8.662;2022-10-31T08:21:36;416.95;;;391.63;;
11039;SDS011;5573;49.592;8.662;2022-10-31T08:24:07;411.52;;;386.85;;
11039;SDS011;5573;49.592;8.662;2022-10-31T08:26:35;403.88;;;379.80;;
11039;SDS011;5573;49.592;8.662;2022-10-31T08:29:07;409.63;;;385.00;;
11039;SDS011;5573;49.592;8.662;2022-10-31T08:31:36;434.33;;;408.30;;
11039;SDS011;5573;49.592;8.662;2022-10-31T08:34:40;417.85;;;393.00;;
11039;SDS011;5573;49.592;8.662;2022-10-31T08:37:34;414.02;;;389.13;;
11039;SDS011;5573;49.592;8.662;2022-10-31T08:40:03;408.55;;;384.95;;
11039;SDS011;5573;49.592;8.662;2022-10-31T08:42:33;434.48;;;408.67;;
11039;SDS011;5573;49.592;8.662;2022-10-31T08:45:03;445.13;;;419.33;;
11039;SDS011;5573;49.592;8.662;2022-10-31T08:47:32;455.73;;;429.05;;
11039;SDS011;5573;49.592;8.662;2022-10-31T08:50:00;489.27;;;459.25;;
11039;SDS011;5573;49.592;8.662;2022-10-31T08:52:28;478.35;;;450.15;;
11039;SDS011;5573;49.592;8.662;2022-10-31T08:55:16;452.58;;;426.10;;
11039;SDS011;5573;49.592;8.662;2022-10-31T08:58:01;447.38;;;421.35;;
11039;SDS011;5573;49.592;8.662;2022-10-31T09:00:40;476.38;;;448.33;;
11039;SDS011;5573;49.592;8.662;2022-10-31T09:03:20;477.98;;;450.35;;
11039;SDS011;5573;49.592;8.662;2022-10-31T09:05:49;477.17;;;448.77;;
11039;SDS011;5573;49.592;8.662;2022-10-31T09:08:17;486.02;;;455.63;;
11039;SDS011;5573;49.592;8.662;2022-10-31T09:10:46;477.85;;;449.83;;
11039;SDS011;5573;49.592;8.662;2022-10-31T09:13:20;550.45;;;517.30;;
11039;SDS011;5573;49.592;8.662;2022-10-31T09:16:13;497.65;;;468.77;;
11039;SDS011;5573;49.592;8.662;2022-10-31T09:18:41;524.95;;;493.13;;
11039;SDS011;5573;49.592;8.662;2022-10-31T09:21:09;512.72;;;481.67;;
11039;SDS011;5573;49.592;8.662;2022-10-31T09:23:37;499.08;;;469.52;;
11039;SDS011;5573;49.592;8.662;2022-10-31T09:26:05;515.08;;;484.50;;
11039;SDS011;5573;49.592;8.662;2022-10-31T09:28:36;511.20;;;480.50;;
11039;SDS011;5573;49.592;8.662;2022-10-31T09:31:07;527.03;;;495.40;;
11039;SDS011;5573;49.592;8.662;2022-10-31T09:33:48;511.70;;;481.33;;
11039;SDS011;5573;49.592;8.662;2022-10-31T09:36:42;516.72;;;486.55;;
11039;SDS011;5573;49.592;8.662;2022-10-31T09:39:17;522.22;;;490.65;;
11039;SDS011;5573;49.592;8.662;2022-10-31T09:41:56;530.80;;;498.85;;
11039;SDS011;5573;49.592;8.662;2022-10-31T09:44:36;545.75;;;513.65;;
11039;SDS011;5573;49.592;8.662;2022-10-31T09:47:41;511.08;;;480.20;;
11039;SDS011;5573;49.592;8.662;2022-10-31T09:50:41;517.15;;;485.45;;
11039;SDS011;5573;49.592;8.662;2022-10-31T09:53:35;540.15;;;507.70;;
11039;SDS011;5573;49.592;8.662;2022-10-31T09:56:10;533.63;;;500.63;;
11039;SDS011;5573;49.592;8.662;2022-10-31T09:58:41;542.45;;;510.55;;
11039;SDS011;5573;49.592;8.662;2022-10-31T10:01:16;536.83;;;504.92;;
11039;SDS011;5573;49.592;8.662;2022-10-31T10:03:57;551.78;;;518.60;;
11039;SDS011;5573;49.592;8.662;2022-10-31T10:07:08;525.65;;;494.25;;
11039;SDS011;5573;49.592;8.662;2022-10-31T10:09:44;510.58;;;479.52;;
11039;SDS011;5573;49.592;8.662;2022-10-31T10:12:36;532.28;;;500.50;;
11039;SDS011;5573;49.592;8.662;2022-10-31T10:15:18;529.67;;;498.27;;
11039;SDS011;5573;49.592;8.662;2022-10-31T10:18:00;540.25;;;508.45;;
11039;SDS011;5573;49.592;8.662;2022-10-31T10:20:35;543.55;;;510.92;;
11039;SDS011;5573;49.592;8.662;2022-10-31T10:23:21;565.47;;;532.10;;
11039;SDS011;5573;49.592;8.662;2022-10-31T10:26:00;550.42;;;517.28;;
11039;SDS011;5573;49.592;8.662;2022-10-31T10:28:37;553.70;;;520.63;;
11039;SDS011;5573;49.592;8.662;2022-10-31T10:31:09;571.38;;;536.92;;
11039;SDS011;5573;49.592;8.662;2022-10-31T10:33:42;563.00;;;528.50;;
11039;SDS011;5573;49.592;8.662;2022-10-31T10:36:25;522.80;;;491.67;;
11039;SDS011;5573;49.592;8.662;2022-10-31T10:39:02;550.80;;;517.88;;
11039;SDS011;5573;49.592;8.662;2022-10-31T10:41:41;554.92;;;522.03;;
11039;SDS011;5573;49.592;8.662;2022-10-31T10:44:13;589.30;;;553.35;;
11039;SDS011;5573;49.592;8.662;2022-10-31T10:46:42;555.95;;;522.85;;
11039;SDS011;5573;49.592;8.662;2022-10-31T10:49:30;553.53;;;521.42;;
11039;SDS011;5573;49.592;8.662;2022-10-31T10:52:04;570.92;;;536.60;;
11039;SDS011;5573;49.592;8.662;2022-10-31T10:55:02;535.13;;;504.25;;
11039;SDS011;5573;49.592;8.662;2022-10-31T10:57:38;537.53;;;505.38;;
11039;SDS011;5573;49.592;8.662;2022-10-31T11:00:18;550.60;;;518.00;;
11039;SDS011;5573;49.592;8.662;2022-10-31T11:02:47;557.40;;;523.75;;
11039;SDS011;5573;49.592;8.662;2022-10-31T11:05:19;567.17;;;533.17;;
11039;SDS011;5573;49.592;8.662;2022-10-31T11:07:51;551.60;;;519.65;;
11039;SDS011;5573;49.592;8.662;2022-10-31T11:10:20;539.13;;;507.15;;
11039;SDS011;5573;49.592;8.662;2022-10-31T11:12:57;556.08;;;522.95;;
11039;SDS011;5573;49.592;8.662;2022-10-31T11:15:30;555.75;;;522.83;;
11039;SDS011;5573;49.592;8.662;2022-10-31T11:17:59;549.10;;;516.17;;
11039;SDS011;5573;49.592;8.662;2022-10-31T11:20:29;551.72;;;518.95;;
11039;SDS011;5573;49.592;8.662;2022-10-31T11:25:49;538.67;;;506.65;;
11039;SDS011;5573;49.592;8.662;2022-10-31T11:28:22;554.28;;;520.92;;
11039;SDS011;5573;49.592;8.662;2022-10-31T11:30:51;564.33;;;530.95;;
11039;SDS011;5573;49.592;8.662;2022-10-31T11:33:22;571.90;;;537.20;;
11039;SDS011;5573;49.592;8.662;2022-10-31T11:35:55;555.72;;;522.83;;
11039;SDS011;5573;49.592;8.662;2022-10-31T11:38:25;567.75;;;533.85;;
11039;SDS011;5573;49.592;8.662;2022-10-31T11:41:03;527.83;;;496.35;;
11039;SDS011;5573;49.592;8.662;2022-10-31T11:43:36;546.85;;;514.92;;
11039;SDS011;5573;49.592;8.662;2022-10-31T11:46:08;558.33;;;525.13;;
11039;SDS011;5573;49.592;8.662;2022-10-31T11:48:38;544.92;;;512.88;;
11039;SDS011;5573;49.592;8.662;2022-10-31T11:51:05;568.40;;;534.20;;
11039;SDS011;5573;49.592;8.662;2022-10-31T11:53:34;554.20;;;521.22;;
11039;SDS011;5573;49.592;8.662;2022-10-31T11:56:05;568.63;;;535.17;;
11039;SDS011;5573;49.592;8.662;2022-10-31T11:58:39;574.08;;;538.55;;
11039;SDS011;5573;49.592;8.662;2022-10-31T12:01:08;576.83;;;542.22;;
11039;SDS011;5573;49.592;8.662;2022-10-31T12:03:53;566.72;;;532.88;;
11039;SDS011;5573;49.592;8.662;2022-10-31T12:06:28;561.17;;;528.25;;
11039;SDS011;5573;49.592;8.662;2022-10-31T12:09:00;561.30;;;527.22;;
11039;SDS011;5573;49.592;8.662;2022-10-31T12:11:39;555.80;;;522.13;;
11039;SDS011;5573;49.592;8.662;2022-10-31T12:14:16;569.05;;;535.28;;
11039;SDS011;5573;49.592;8.662;2022-10-31T12:16:55;584.15;;;548.70;;
11039;SDS011;5573;49.592;8.662;2022-10-31T12:19:32;576.15;;;541.80;;
11039;SDS011;5573;49.592;8.662;2022-10-31T12:22:12;566.20;;;532.33;;
11039;SDS011;5573;49.592;8.662;2022-10-31T12:24:50;571.15;;;537.00;;
11039;SDS011;5573;49.592;8.662;2022-10-31T12:27:32;571.60;;;537.20;;
11039;SDS011;5573;49.592;8.662;2022-10-31T12:30:18;553.08;;;519.78;;
11039;SDS011;5573;49.592;8.662;2022-10-31T12:32:51;564.30;;;530.33;;
11039;SDS011;5573;49.592;8.662;2022-10-31T12:35:35;569.92;;;535.70;;
11039;SDS011;5573;49.592;8.662;2022-10-31T12:38:21;565.97;;;531.88;;
11039;SDS011;5573;49.592;8.662;2022-10-31T12:41:02;574.72;;;539.60;;
11039;SDS011;5573;49.592;8.662;2022-10-31T12:43:42;586.03;;;550.83;;
11039;SDS011;5573;49.592;8.662;2022-10-31T12:46:16;564.17;;;530.90;;
11039;SDS011;5573;49.592;8.662;2022-10-31T12:48:57;556.00;;;521.78;;
11039;SDS011;5573;49.592;8.662;2022-10-31T12:51:47;582.83;;;547.42;;
11039;SDS011;5573;49.592;8.662;2022-10-31T12:54:29;573.90;;;539.85;;
11039;SDS011;5573;49.592;8.662;2022-10-31T12:57:16;582.20;;;547.22;;
11039;SDS011;5573;49.592;8.662;2022-10-31T12:59:52;553.40;;;519.85;;
11039;SDS011;5573;49.592;8.662;2022-10-31T13:02:26;535.75;;;502.88;;
11039;SDS011;5573;49.592;8.662;2022-10-31T13:04:57;566.20;;;532.42;;
11039;SDS011;5573;49.592;8.662;2022-10-31T13:07:30;562.03;;;527.97;;
11039;SDS011;5573;49.592;8.662;2022-10-31T13:10:05;547.45;;;515.38;;
11039;SDS011;5573;49.592;8.662;2022-10-31T13:12:41;556.00;;;522.65;;
11039;SDS011;5573;49.592;8.662;2022-10-31T13:15:14;558.45;;;526.03;;
11039;SDS011;5573;49.592;8.662;2022-10-31T13:17:46;586.28;;;551.05;;
11039;SDS011;5573;49.592;8.662;2022-10-31T13:20:19;574.80;;;541.15;;
11039;SDS011;5573;49.592;8.662;2022-10-31T13:22:52;552.95;;;519.70;;
11039;SDS011;5573;49.592;8.662;2022-10-31T13:25:24;564.13;;;530.58;;
11039;SDS011;5573;49.592;8.662;2022-10-31T13:27:56;544.92;;;511.75;;
11039;SDS011;5573;49.592;8.662;2022-10-31T13:30:28;550.92;;;517.25;;
11039;SDS011;5573;49.592;8.662;2022-10-31T13:33:00;563.90;;;530.53;;
11039;SDS011;5573;49.592;8.662;2022-10-31T13:35:35;566.35;;;531.85;;
11039;SDS011;5573;49.592;8.662;2022-10-31T13:38:10;550.45;;;516.50;;
11039;SDS011;5573;49.592;8.662;2022-10-31T13:40:48;561.03;;;527.30;;
11039;SDS011;5573;49.592;8.662;2022-10-31T13:43:27;562.17;;;528.92;;
11039;SDS011;5573;49.592;8.662;2022-10-31T13:46:00;579.65;;;544.60;;
11039;SDS011;5573;49.592;8.662;2022-10-31T13:48:33;561.63;;;527.53;;
11039;SDS011;5573;49.592;8.662;2022-10-31T13:51:03;568.15;;;533.85;;
11039;SDS011;5573;49.592;8.662;2022-10-31T13:53:41;583.22;;;548.10;;
11039;SDS011;5573;49.592;8.662;2022-10-31T13:56:15;543.58;;;510.75;;
11039;SDS011;5573;49.592;8.662;2022-10-31T13:58:59;556.65;;;522.90;;
11039;SDS011;5573;49.592;8.662;2022-10-31T14:01:47;570.22;;;535.47;;
11039;SDS011;5573;49.592;8.662;2022-10-31T14:04:19;585.95;;;550.28;;
11039;SDS011;5573;49.592;8.662;2022-10-31T14:06:53;589.78;;;554.75;;
11039;SDS011;5573;49.592;8.662;2022-10-31T14:09:26;579.00;;;543.92;;
11039;SDS011;5573;49.592;8.662;2022-10-31T14:11:57;563.90;;;529.45;;
11039;SDS011;5573;49.592;8.662;2022-10-31T14:14:30;566.42;;;532.75;;
11039;SDS011;5573;49.592;8.662;2022-10-31T14:17:04;569.25;;;535.58;;
11039;SDS011;5573;49.592;8.662;2022-10-31T14:19:32;556.33;;;522.95;;
11039;SDS011;5573;49.592;8.662;2022-10-31T14:22:00;542.38;;;509.27;;
11039;SDS011;5573;49.592;8.662;2022-10-31T14:24:32;522.00;;;490.98;;
11039;SDS011;5573;49.592;8.662;2022-10-31T14:27:02;564.10;;;529.95;;
11039;SDS011;5573;49.592;8.662;2022-10-31T14:29:51;547.67;;;515.25;;
11039;SDS011;5573;49.592;8.662;2022-10-31T14:32:21;553.85;;;520.65;;
11039;SDS011;5573;49.592;8.662;2022-10-31T14:34:52;551.40;;;518.08;;
11039;SDS011;5573;49.592;8.662;2022-10-31T14:37:51;569.50;;;534.35;;
11039;SDS011;5573;49.592;8.662;2022-10-31T14:40:32;567.65;;;534.03;;
11039;SDS011;5573;49.592;8.662;2022-10-31T14:43:30;557.85;;;524.50;;
11039;SDS011;5573;49.592;8.662;2022-10-31T14:46:12;554.10;;;521.90;;
11039;SDS011;5573;49.592;8.662;2022-10-31T14:51:44;533.35;;;502.55;;
11039;SDS011;5573;49.592;8.662;2022-10-31T14:54:17;569.40;;;535.58;;
11039;SDS011;5573;49.592;8.662;2022-10-31T14:56:51;540.97;;;509.73;;
11039;SDS011;5573;49.592;8.662;2022-10-31T14:59:21;564.28;;;530.08;;
11039;SDS011;5573;49.592;8.662;2022-10-31T15:01:56;574.70;;;540.67;;
11039;SDS011;5573;49.592;8.662;2022-10-31T15:04:28;544.50;;;511.48;;
11039;SDS011;5573;49.592;8.662;2022-10-31T15:07:00;544.83;;;512.28;;
11039;SDS011;5573;49.592;8.662;2022-10-31T15:09:34;565.78;;;531.63;;
11039;SDS011;5573;49.592;8.662;2022-10-31T15:12:16;543.20;;;510.77;;
11039;SDS011;5573;49.592;8.662;2022-10-31T15:14:49;556.15;;;522.55;;
11039;SDS011;5573;49.592;8.662;2022-10-31T15:17:18;564.50;;;530.42;;
11039;SDS011;5573;49.592;8.662;2022-10-31T15:19:48;552.13;;;518.65;;
11039;SDS011;5573;49.592;8.662;2022-10-31T15:22:16;549.33;;;516.92;;
11039;SDS011;5573;49.592;8.662;2022-10-31T15:24:45;576.88;;;542.00;;
11039;SDS011;5573;49.592;8.662;2022-10-31T15:27:15;567.80;;;532.20;;
11039;SDS011;5573;49.592;8.662;2022-10-31T15:29:48;551.85;;;518.67;;
11039;SDS011;5573;49.592;8.662;2022-10-31T15:32:18;538.33;;;505.92;;
11039;SDS011;5573;49.592;8.662;2022-10-31T15:34:50;549.70;;;517.00;;
11039;SDS011;5573;49.592;8.662;2022-10-31T15:37:19;558.55;;;525.10;;
11039;SDS011;5573;49.592;8.662;2022-10-31T15:39:48;533.47;;;501.27;;
11039;SDS011;5573;49.592;8.662;2022-10-31T15:42:18;535.08;;;503.27;;
11039;SDS011;5573;49.592;8.662;2022-10-31T15:44:49;523.17;;;491.05;;